createdAt,value
2017-08-29T00:00:53.399Z,99204.59
2017-08-29T00:03:23.495Z,99209.20
2017-08-29T00:05:53.392Z,99227.02
2017-08-29T00:08:24.684Z,99204.62
2017-08-29T00:10:58.265Z,99200.03
2017-08-29T00:13:32.086Z,99221.39
2017-08-29T00:16:02.664Z,99196.47
2017-08-29T00:18:32.512Z,99198.84
2017-08-29T00:21:02.430Z,99195.95
2017-08-29T00:23:32.547Z,99193.73
2017-08-29T00:26:02.954Z,99198.51
2017-08-29T00:28:32.771Z,99201.75
2017-08-29T00:31:03.325Z,99192.41
2017-08-29T00:33:33.115Z,99194.00
2017-08-29T00:36:02.973Z,99196.22
2017-08-29T00:38:33.383Z,99198.19
2017-08-29T00:41:04.421Z,99127.15
2017-08-29T00:43:35.307Z,99162.60
2017-08-29T00:46:05.917Z,99189.02
2017-08-29T00:48:35.674Z,99165.94
2017-08-29T00:51:14.190Z,99184.11
2017-08-29T00:53:52.414Z,99178.15
2017-08-29T00:56:22.945Z,99179.33
2017-08-29T00:58:53.349Z,99174.46
2017-08-29T01:01:24.828Z,99143.18
2017-08-29T01:03:55.476Z,99168.32
2017-08-29T01:06:25.191Z,99168.56
2017-08-29T01:08:55.281Z,99167.69
2017-08-29T01:11:25.857Z,99175.66
2017-08-29T01:13:57.533Z,99169.11
2017-08-29T01:16:27.556Z,99172.36
2017-08-29T01:18:58.755Z,99163.09
2017-08-29T01:21:30.001Z,99162.50
2017-08-29T01:24:02.010Z,99157.28
2017-08-29T01:26:33.072Z,99159.41
2017-08-29T01:29:03.075Z,99151.34
2017-08-29T01:31:33.945Z,99139.44
2017-08-29T01:34:03.827Z,99158.62
2017-08-29T01:36:34.186Z,99151.81
2017-08-29T01:39:04.699Z,99162.49
2017-08-29T01:41:35.002Z,99157.22
2017-08-29T01:44:05.198Z,99153.06
2017-08-29T01:46:35.578Z,99156.80
2017-08-29T01:49:05.777Z,99156.96
2017-08-29T01:51:35.878Z,99154.35
2017-08-29T01:54:06.326Z,99158.67
2017-08-29T01:56:36.185Z,99161.52
2017-08-29T01:59:06.479Z,99157.42
2017-08-29T02:01:36.618Z,99134.12
2017-08-29T02:04:07.126Z,99106.44
2017-08-29T02:06:37.376Z,98922.64
2017-08-29T02:09:08.293Z,99146.75
2017-08-29T02:11:39.964Z,99160.92
2017-08-29T02:14:09.669Z,99161.33
2017-08-29T02:16:39.493Z,99158.95
2017-08-29T02:19:09.624Z,99159.21
2017-08-29T02:21:39.583Z,99159.68
2017-08-29T02:24:10.759Z,99154.70
2017-08-29T02:26:41.357Z,99153.46
2017-08-29T02:29:11.390Z,99103.69
2017-08-29T02:31:41.180Z,99145.95
2017-08-29T02:34:12.215Z,99152.59
2017-08-29T02:36:43.343Z,99151.32
2017-08-29T02:39:13.569Z,99148.03
2017-08-29T02:41:45.687Z,99151.03
2017-08-29T02:44:16.056Z,99146.13
2017-08-29T02:46:47.770Z,99150.23
2017-08-29T02:49:19.163Z,99154.82
2017-08-29T02:51:50.062Z,98999.50
2017-08-29T02:54:20.111Z,99154.86
2017-08-29T02:56:50.480Z,99160.93
2017-08-29T02:59:20.612Z,99154.33
2017-08-29T03:01:50.754Z,99151.96
2017-08-29T03:04:20.935Z,99155.98
2017-08-29T03:06:50.800Z,99163.17
2017-08-29T03:09:20.715Z,99160.50
2017-08-29T03:11:51.234Z,99153.41
2017-08-29T03:14:21.301Z,99147.39
2017-08-29T03:16:51.439Z,99155.21
2017-08-29T03:19:21.749Z,99147.07
2017-08-29T03:21:51.721Z,99142.01
2017-08-29T03:24:21.717Z,99142.01
2017-08-29T03:26:51.702Z,99122.04
2017-08-29T03:29:21.443Z,99138.91
2017-08-29T03:31:51.395Z,99136.23
2017-08-29T03:34:25.294Z,99128.56
2017-08-29T03:36:55.205Z,99126.53
2017-08-29T03:39:25.108Z,99124.64
2017-08-29T03:41:55.453Z,99129.06
2017-08-29T03:44:25.493Z,99121.32
2017-08-29T03:46:56.914Z,99129.45
2017-08-29T03:49:27.024Z,99123.94
2017-08-29T03:51:57.148Z,99135.47
2017-08-29T03:54:27.085Z,99132.55
2017-08-29T03:56:57.147Z,99128.67
2017-08-29T03:59:27.255Z,99097.05
2017-08-29T04:01:57.226Z,99098.14
2017-08-29T04:04:27.347Z,99101.92
2017-08-29T04:06:59.343Z,99131.99
2017-08-29T04:09:29.348Z,99121.95
2017-08-29T04:11:59.538Z,99129.92
2017-08-29T04:14:31.793Z,99128.69
2017-08-29T04:17:05.934Z,99127.34
2017-08-29T04:19:35.895Z,99133.01
2017-08-29T04:22:05.959Z,99130.09
2017-08-29T04:24:35.698Z,99132.99
2017-08-29T04:27:05.456Z,99136.97
2017-08-29T04:29:35.686Z,99131.81
2017-08-29T04:32:05.717Z,99130.58
2017-08-29T04:34:35.506Z,99136.89
2017-08-29T04:37:06.167Z,99135.00
2017-08-29T04:39:36.075Z,99134.20
2017-08-29T04:42:06.333Z,99139.48
2017-08-29T04:44:36.745Z,99140.35
2017-08-29T04:47:06.517Z,99142.98
2017-08-29T04:49:36.127Z,99145.73
2017-08-29T04:52:06.779Z,99142.02
2017-08-29T04:54:36.630Z,99136.59
2017-08-29T04:57:06.610Z,99134.30
2017-08-29T04:59:36.655Z,99122.28
2017-08-29T05:02:06.346Z,99074.39
2017-08-29T05:04:37.096Z,99125.36
2017-08-29T05:07:07.192Z,99126.70
2017-08-29T05:09:37.264Z,99155.83
2017-08-29T05:12:09.279Z,99122.38
2017-08-29T05:14:39.522Z,99127.64
2017-08-29T05:17:09.210Z,99114.31
2017-08-29T05:19:38.955Z,99119.92
2017-08-29T05:22:08.890Z,99111.92
2017-08-29T05:24:38.547Z,99114.84
2017-08-29T05:27:08.665Z,99116.28
2017-08-29T05:29:39.001Z,99071.72
2017-08-29T05:32:09.452Z,99127.66
2017-08-29T05:34:40.550Z,99122.84
2017-08-29T05:37:10.764Z,99124.73
2017-08-29T05:39:41.234Z,99117.37
2017-08-29T05:42:12.590Z,99101.44
2017-08-29T05:44:44.862Z,99127.72
2017-08-29T05:47:15.298Z,99123.13
2017-08-29T05:49:46.917Z,99129.45
2017-08-29T05:52:17.104Z,99133.90
2017-08-29T05:54:47.069Z,99127.09
2017-08-29T05:57:18.984Z,99127.22
2017-08-29T05:59:49.344Z,99133.38
2017-08-29T06:02:19.145Z,99130.78
2017-08-29T06:04:49.721Z,99133.53
2017-08-29T06:07:19.509Z,99094.77
2017-08-29T06:09:49.320Z,99113.77
2017-08-29T06:12:20.366Z,99120.73
2017-08-29T06:14:50.038Z,99115.11
2017-08-29T06:17:21.729Z,99116.48
2017-08-29T06:19:52.355Z,99116.13
2017-08-29T06:22:22.500Z,99105.27
2017-08-29T06:24:52.286Z,99101.80
2017-08-29T06:27:22.403Z,99101.69
2017-08-29T06:29:52.063Z,99094.01
2017-08-29T06:32:21.924Z,99097.84
2017-08-29T06:34:54.134Z,99092.51
2017-08-29T06:37:25.161Z,99097.53
2017-08-29T06:39:55.810Z,99087.36
2017-08-29T06:42:26.208Z,99083.59
2017-08-29T06:44:55.908Z,99087.10
2017-08-29T06:47:25.555Z,99088.28
2017-08-29T06:49:55.531Z,99083.41
2017-08-29T06:52:26.076Z,99084.66
2017-08-29T06:54:56.507Z,99090.09
2017-08-29T06:57:26.723Z,99077.98
2017-08-29T06:59:56.728Z,99083.20
2017-08-29T07:02:26.653Z,99077.66
2017-08-29T07:04:56.833Z,99079.00
2017-08-29T07:07:26.468Z,99064.73
2017-08-29T07:09:56.313Z,99082.04
2017-08-29T07:12:26.591Z,99083.62
2017-08-29T07:14:56.815Z,99087.73
2017-08-29T07:17:26.686Z,99085.08
2017-08-29T07:19:58.006Z,99082.06
2017-08-29T07:22:27.740Z,99089.27
2017-08-29T07:24:57.727Z,99086.41
2017-08-29T07:27:27.749Z,99083.59
2017-08-29T07:29:57.613Z,99080.98
2017-08-29T07:32:27.316Z,99085.25
2017-08-29T07:34:57.603Z,99082.95
2017-08-29T07:37:27.326Z,99081.88
2017-08-29T07:39:57.105Z,99065.10
2017-08-29T07:42:27.492Z,99080.12
2017-08-29T07:45:01.761Z,99062.29
2017-08-29T07:47:31.587Z,99050.55
2017-08-29T07:50:01.770Z,99074.79
2017-08-29T07:52:31.538Z,99021.04
2017-08-29T07:55:01.482Z,99055.86
2017-08-29T07:57:33.825Z,99078.19
2017-08-29T08:00:06.331Z,99069.95
2017-08-29T08:02:37.324Z,99069.66
2017-08-29T08:05:08.177Z,99070.59
2017-08-29T08:07:38.934Z,99072.92
2017-08-29T08:10:09.299Z,99068.33
2017-08-29T08:12:39.614Z,99067.73
2017-08-29T08:15:10.491Z,99103.19
2017-08-29T08:17:40.786Z,99066.95
2017-08-29T08:20:10.518Z,99069.52
2017-08-29T08:22:41.442Z,99072.11
2017-08-29T08:25:12.036Z,99102.59
2017-08-29T08:27:44.675Z,99066.50
2017-08-29T08:30:18.073Z,99090.67
2017-08-29T08:34:16.061Z,98859.66
2017-08-29T08:36:46.190Z,99063.97
2017-08-29T08:39:16.749Z,99059.20
2017-08-29T08:41:49.922Z,99064.14
2017-08-29T08:44:23.232Z,99019.63
2017-08-29T08:46:55.337Z,99061.80
2017-08-29T08:49:33.378Z,99046.78
2017-08-29T08:52:03.775Z,99060.52
2017-08-29T08:54:36.808Z,98934.48
2017-08-29T08:57:08.799Z,99058.54
2017-08-29T08:59:39.011Z,99039.23
2017-08-29T09:02:11.320Z,99028.92
2017-08-29T09:04:41.333Z,99060.97
2017-08-29T09:07:14.182Z,99060.05
2017-08-29T09:09:47.449Z,99059.09
2017-08-29T09:12:19.295Z,98934.64
2017-08-29T09:14:54.826Z,98903.37
2017-08-29T09:17:25.373Z,99056.92
2017-08-29T09:19:56.384Z,99061.36
2017-08-29T09:22:27.931Z,99115.13
2017-08-29T09:24:59.319Z,99061.00
2017-08-29T09:27:29.331Z,99035.16
2017-08-29T09:30:01.899Z,98879.03
2017-08-29T09:32:32.205Z,99063.52
2017-08-29T09:35:03.198Z,99063.25
2017-08-29T09:37:33.371Z,99013.49
2017-08-29T09:40:04.923Z,99025.74
2017-08-29T09:42:35.395Z,99014.95
2017-08-29T09:45:05.563Z,99052.72
2017-08-29T09:47:35.939Z,99052.39
2017-08-29T09:50:06.869Z,99046.83
2017-08-29T09:52:37.338Z,99047.05
2017-08-29T09:55:07.656Z,99045.90
2017-08-29T09:57:37.602Z,99043.59
2017-08-29T10:00:07.502Z,99039.22
2017-08-29T10:02:38.218Z,99036.75
2017-08-29T10:05:08.005Z,99030.84
2017-08-29T10:07:37.961Z,99033.55
2017-08-29T10:10:08.303Z,99026.05
2017-08-29T10:12:38.068Z,99026.27
2017-08-29T10:15:07.758Z,99019.75
2017-08-29T10:17:38.046Z,99004.08
2017-08-29T10:20:07.786Z,99015.03
2017-08-29T10:22:37.468Z,98985.83
2017-08-29T10:25:07.711Z,99025.69
2017-08-29T10:27:37.371Z,99003.37
2017-08-29T10:30:07.379Z,99004.78
2017-08-29T10:32:37.390Z,98995.73
2017-08-29T10:35:07.291Z,99012.38
2017-08-29T10:37:36.947Z,98994.89
2017-08-29T10:40:08.702Z,98987.02
2017-08-29T10:42:38.329Z,98987.25
2017-08-29T10:45:08.162Z,98985.70
2017-08-29T10:47:38.231Z,98906.57
2017-08-29T10:50:08.244Z,98982.89
2017-08-29T10:52:37.997Z,98980.81
2017-08-29T10:55:08.227Z,98976.03
2017-08-29T10:57:38.233Z,98968.92
2017-08-29T11:00:08.486Z,98960.88
2017-08-29T11:02:38.774Z,98965.55
2017-08-29T11:05:09.094Z,98896.84
2017-08-29T11:07:38.854Z,98970.44
2017-08-29T11:10:09.811Z,98922.45
2017-08-29T11:12:39.727Z,98964.50
2017-08-29T11:15:09.768Z,98962.03
2017-08-29T11:17:39.975Z,98959.55
2017-08-29T11:20:11.110Z,98953.22
2017-08-29T11:22:41.925Z,98954.63
2017-08-29T11:25:12.955Z,98949.06
2017-08-29T11:27:45.258Z,98951.42
2017-08-29T11:30:16.013Z,98950.30
2017-08-29T11:32:46.202Z,98945.09
2017-08-29T11:35:15.956Z,98949.36
2017-08-29T11:37:48.783Z,98940.70
2017-08-29T11:40:19.851Z,98937.83
2017-08-29T11:42:49.973Z,98882.98
2017-08-29T11:45:22.841Z,98932.73
2017-08-29T11:47:55.176Z,98939.98
2017-08-29T11:50:25.001Z,98934.41
2017-08-29T11:52:55.238Z,98933.42
2017-08-29T11:55:25.307Z,98931.12
2017-08-29T11:57:55.918Z,98926.67
2017-08-29T12:00:26.643Z,98900.41
2017-08-29T12:02:56.624Z,98925.77
2017-08-29T12:05:26.821Z,98917.11
2017-08-29T12:07:57.241Z,98915.42
2017-08-29T12:10:29.163Z,98912.16
2017-08-29T12:12:59.056Z,98911.78
2017-08-29T12:15:29.551Z,98910.83
2017-08-29T12:18:02.155Z,98905.81
2017-08-29T12:20:32.598Z,98901.81
2017-08-29T12:23:04.381Z,98891.57
2017-08-29T12:25:34.320Z,98903.22
2017-08-29T12:28:04.413Z,98922.34
2017-08-29T12:30:34.512Z,98898.06
2017-08-29T12:33:04.194Z,98900.20
2017-08-29T12:35:34.156Z,98895.02
2017-08-29T12:38:05.589Z,98888.09
2017-08-29T12:40:36.512Z,98889.28
2017-08-29T12:43:06.173Z,98890.06
2017-08-29T12:45:36.190Z,98887.19
2017-08-29T12:48:06.255Z,98876.05
2017-08-29T12:50:35.937Z,98866.16
2017-08-29T12:53:05.939Z,98861.02
2017-08-29T12:55:36.438Z,98858.14
2017-08-29T12:58:06.256Z,98857.02
2017-08-29T13:00:36.073Z,98839.60
2017-08-29T13:03:06.519Z,98846.82
2017-08-29T13:05:36.975Z,98852.59
2017-08-29T13:08:06.810Z,98836.38
2017-08-29T13:10:37.006Z,98825.02
2017-08-29T13:13:07.165Z,98843.58
2017-08-29T13:15:39.095Z,98842.05
2017-08-29T13:18:09.746Z,98837.83
2017-08-29T13:20:39.866Z,98833.27
2017-08-29T13:23:10.166Z,98778.25
2017-08-29T13:25:40.768Z,98823.09
2017-08-29T13:28:10.546Z,98822.52
2017-08-29T13:30:40.436Z,98819.03
2017-08-29T13:33:10.603Z,98817.52
2017-08-29T13:35:40.490Z,98842.61
2017-08-29T13:38:10.511Z,98814.64
2017-08-29T13:40:50.630Z,98744.83
2017-08-29T13:43:20.628Z,98792.30
2017-08-29T13:45:50.336Z,98790.55
2017-08-29T13:48:20.423Z,98800.22
2017-08-29T13:50:50.473Z,98802.77
2017-08-29T13:53:20.182Z,98805.24
2017-08-29T13:55:50.230Z,98800.45
2017-08-29T13:58:20.255Z,98799.89
2017-08-29T14:00:50.864Z,98798.93
2017-08-29T14:03:21.497Z,98781.21
2017-08-29T14:05:51.909Z,98784.17
2017-08-29T14:08:21.607Z,98789.02
2017-08-29T14:10:53.547Z,98786.48
2017-08-29T14:13:23.266Z,98791.16
2017-08-29T14:15:53.218Z,98805.45
2017-08-29T14:18:23.309Z,98788.84
2017-08-29T14:20:52.959Z,98782.66
2017-08-29T14:23:22.767Z,98767.42
2017-08-29T14:25:52.768Z,98781.52
2017-08-29T14:28:22.608Z,98781.52
2017-08-29T14:30:52.242Z,98777.47
2017-08-29T14:33:22.362Z,98778.08
2017-08-29T14:35:52.309Z,98777.12
2017-08-29T14:38:22.033Z,98779.83
2017-08-29T14:40:52.230Z,98777.88
2017-08-29T14:43:21.873Z,98774.61
2017-08-29T14:45:51.710Z,98775.17
2017-08-29T14:49:29.602Z,98771.52
2017-08-29T14:51:59.519Z,98845.66
2017-08-29T14:54:29.815Z,98772.86
2017-08-29T14:56:59.708Z,98767.86
2017-08-29T14:59:29.579Z,98765.94
2017-08-29T15:01:59.753Z,98763.23
2017-08-29T15:04:29.589Z,98759.58
2017-08-29T15:06:59.366Z,98761.14
2017-08-29T15:09:29.467Z,98758.83
2017-08-29T15:12:00.896Z,98761.53
2017-08-29T15:14:30.732Z,98756.73
2017-08-29T15:17:00.941Z,98752.30
2017-08-29T15:19:30.661Z,98752.34
2017-08-29T15:22:00.581Z,98754.25
2017-08-29T15:24:30.936Z,98745.58
2017-08-29T15:27:00.683Z,98754.08
2017-08-29T15:29:30.497Z,98749.04
2017-08-29T15:32:00.734Z,98744.81
2017-08-29T15:34:31.086Z,98743.86
2017-08-29T15:37:01.052Z,98742.89
2017-08-29T15:39:31.020Z,98744.07
2017-08-29T15:42:00.775Z,98749.08
2017-08-29T15:44:30.460Z,98732.70
2017-08-29T15:47:01.074Z,98753.92
2017-08-29T15:49:31.051Z,98742.72
2017-08-29T15:52:00.923Z,98755.86
2017-08-29T15:54:30.917Z,98746.42
2017-08-29T15:57:00.723Z,98709.44
2017-08-29T15:59:30.645Z,98740.06
2017-08-29T16:02:02.228Z,98740.84
2017-08-29T16:04:33.263Z,98732.73
2017-08-29T16:07:03.097Z,98733.91
2017-08-29T16:09:33.097Z,98733.71
2017-08-29T16:12:03.603Z,98736.23
2017-08-29T16:14:33.327Z,98720.47
2017-08-29T16:17:05.014Z,98731.66
2017-08-29T16:19:35.089Z,98733.06
2017-08-29T16:22:06.586Z,98724.17
2017-08-29T16:24:36.881Z,98724.56
2017-08-29T16:27:07.393Z,98727.87
2017-08-29T16:29:37.221Z,98723.44
2017-08-29T16:32:07.640Z,98730.94
2017-08-29T16:34:37.450Z,98712.12
2017-08-29T16:37:07.576Z,98751.81
2017-08-29T16:39:38.003Z,98728.23
2017-08-29T16:42:08.480Z,98731.55
2017-08-29T16:44:38.495Z,98719.23
2017-08-29T16:47:08.508Z,98738.13
2017-08-29T16:49:38.800Z,98721.75
2017-08-29T16:52:09.330Z,98731.41
2017-08-29T16:54:39.025Z,98726.41
2017-08-29T16:57:08.915Z,98725.28
2017-08-29T16:59:39.518Z,98716.07
2017-08-29T17:02:09.325Z,98720.52
2017-08-29T17:04:39.332Z,98720.61
2017-08-29T17:07:13.822Z,98719.73
2017-08-29T17:09:46.103Z,98696.84
2017-08-29T17:12:17.633Z,98707.83
2017-08-29T17:14:51.391Z,98679.91
2017-08-29T17:17:23.244Z,98716.73
2017-08-29T17:19:54.173Z,98720.22
2017-08-29T17:22:24.582Z,98723.11
2017-08-29T17:24:54.951Z,98719.44
2017-08-29T17:27:25.401Z,98685.14
2017-08-29T17:29:55.610Z,98728.95
2017-08-29T17:32:25.880Z,98720.69
2017-08-29T17:34:55.893Z,98720.30
2017-08-29T17:37:25.774Z,98734.75
2017-08-29T17:39:56.001Z,98740.73
2017-08-29T17:42:25.812Z,98745.17
2017-08-29T17:44:55.576Z,98768.33
2017-08-29T17:47:25.646Z,98752.50
2017-08-29T17:49:55.368Z,98742.86
2017-08-29T17:52:25.833Z,98756.02
2017-08-29T17:54:56.007Z,98750.41
2017-08-29T17:57:25.845Z,98754.07
2017-08-29T17:59:55.780Z,98739.22
2017-08-29T18:02:25.981Z,98742.89
2017-08-29T18:04:55.971Z,98764.50
2017-08-29T18:07:25.899Z,98755.42
2017-08-29T18:10:05.761Z,98743.69
2017-08-29T18:12:35.575Z,98769.55
2017-08-29T18:15:05.562Z,98756.23
2017-08-29T18:17:36.861Z,98775.09
2017-08-29T18:20:07.269Z,98772.39
2017-08-29T18:22:37.515Z,98772.80
2017-08-29T18:25:07.725Z,98770.65
2017-08-29T18:27:38.864Z,98708.89
2017-08-29T18:30:08.927Z,98758.34
2017-08-29T18:32:39.242Z,98791.14
2017-08-29T18:35:12.372Z,98766.63
2017-08-29T18:37:43.549Z,98767.98
2017-08-29T18:40:14.500Z,98764.89
2017-08-29T18:42:47.927Z,98751.97
2017-08-29T18:45:18.146Z,98747.12
2017-08-29T18:47:52.120Z,98725.47
2017-08-29T18:50:22.824Z,98768.72
2017-08-29T18:52:54.912Z,98756.94
2017-08-29T18:55:25.400Z,98760.95
2017-08-29T18:57:57.504Z,98776.96
2017-08-29T19:00:27.505Z,98777.88
2017-08-29T19:02:58.220Z,98761.20
2017-08-29T19:05:35.500Z,98795.56
2017-08-29T19:08:05.532Z,98747.09
2017-08-29T19:10:35.682Z,98761.54
2017-08-29T19:13:05.986Z,98770.22
2017-08-29T19:15:36.247Z,98770.36
2017-08-29T19:18:09.591Z,98754.30
2017-08-29T19:20:51.828Z,98527.16
2017-08-29T19:23:23.154Z,98779.30
2017-08-29T19:25:53.334Z,98772.45
2017-08-29T19:28:30.326Z,98730.79
2017-08-29T19:31:06.975Z,98743.17
2017-08-29T19:33:42.847Z,98769.70
2017-08-29T19:36:17.749Z,98757.33
2017-08-29T19:38:48.844Z,98775.29
2017-08-29T19:41:23.849Z,98776.38
2017-08-29T19:43:54.083Z,98779.91
2017-08-29T19:46:24.192Z,98771.92
2017-08-29T19:48:55.109Z,98771.30
2017-08-29T19:51:25.356Z,98767.81
2017-08-29T19:53:55.432Z,98762.79
2017-08-29T19:56:25.924Z,98766.23
2017-08-29T19:58:55.994Z,98802.11
2017-08-29T20:01:25.924Z,98766.14
2017-08-29T20:03:56.633Z,98771.53
2017-08-29T20:06:26.335Z,98767.00
2017-08-29T20:08:56.248Z,98767.33
2017-08-29T20:11:26.267Z,98766.48
2017-08-29T20:13:56.302Z,98733.48
2017-08-29T20:16:25.979Z,98759.91
2017-08-29T20:18:56.024Z,98747.77
2017-08-29T20:21:25.646Z,98763.23
2017-08-29T20:23:55.542Z,98764.63
2017-08-29T20:26:25.982Z,98761.41
2017-08-29T20:28:56.141Z,98764.69
2017-08-29T20:31:37.400Z,98721.20
2017-08-29T20:34:09.345Z,98704.92
2017-08-29T20:36:40.024Z,98748.73
2017-08-29T20:39:10.329Z,98749.69
2017-08-29T20:41:54.760Z,98709.41
2017-08-29T20:44:41.379Z,98659.61
2017-08-29T20:47:13.800Z,98747.16
2017-08-29T20:49:48.939Z,98749.69
2017-08-29T20:52:19.895Z,98654.55
2017-08-29T20:54:52.631Z,98742.85
2017-08-29T20:57:22.804Z,98750.73
2017-08-29T20:59:52.796Z,98731.37
2017-08-29T21:02:24.557Z,98726.92
2017-08-29T21:04:56.477Z,98738.09
2017-08-29T21:07:29.399Z,98736.34
2017-08-29T21:09:59.789Z,98751.79
2017-08-29T21:12:29.814Z,98713.23
2017-08-29T21:15:04.042Z,98750.70
2017-08-29T21:17:34.704Z,98749.56
2017-08-29T21:20:05.972Z,98749.56
2017-08-29T21:22:36.129Z,98741.84
2017-08-29T21:25:09.843Z,98740.14
2017-08-29T21:27:48.198Z,98727.19
2017-08-29T21:30:20.275Z,98682.72
2017-08-29T21:32:50.348Z,98715.02
2017-08-29T21:35:22.569Z,98652.66
2017-08-29T21:37:55.891Z,98752.35
2017-08-29T21:40:26.632Z,98723.14
2017-08-29T21:42:57.748Z,98708.33
2017-08-29T21:45:29.067Z,98732.98
2017-08-29T21:47:59.033Z,98735.25
2017-08-29T21:50:28.904Z,98731.94
2017-08-29T21:52:58.855Z,98734.42
2017-08-29T21:55:29.579Z,98731.72
2017-08-29T21:57:59.635Z,98731.15
2017-08-29T22:00:31.233Z,98728.23
2017-08-29T22:03:01.022Z,98730.94
2017-08-29T22:05:30.951Z,98723.28
2017-08-29T22:08:01.004Z,98732.50
2017-08-29T22:10:30.775Z,98733.07
2017-08-29T22:13:00.776Z,98735.37
2017-08-29T22:15:31.204Z,98736.73
2017-08-29T22:18:01.779Z,98733.06
2017-08-29T22:20:31.942Z,98736.72
2017-08-29T22:23:02.586Z,98739.81
2017-08-29T22:25:33.644Z,98737.28
2017-08-29T22:28:03.904Z,98742.26
2017-08-29T22:30:35.234Z,98744.16
2017-08-29T22:33:05.127Z,98734.66
2017-08-29T22:35:34.940Z,98723.09
2017-08-29T22:38:05.247Z,98733.61
2017-08-29T22:40:35.081Z,98728.77
2017-08-29T22:43:05.199Z,98722.42
2017-08-29T22:45:35.528Z,98736.31
2017-08-29T22:48:05.246Z,98732.48
2017-08-29T22:50:35.206Z,98728.81
2017-08-29T22:53:05.969Z,98734.44
2017-08-29T22:55:37.338Z,98730.21
2017-08-29T22:58:07.388Z,98730.03
2017-08-29T23:00:37.817Z,98717.16
2017-08-29T23:03:07.613Z,98719.86
2017-08-29T23:05:37.566Z,98731.61
2017-08-29T23:08:08.107Z,98729.13
2017-08-29T23:10:38.523Z,98700.61
2017-08-29T23:13:09.049Z,98728.23
2017-08-29T23:15:41.063Z,98678.65
2017-08-29T23:18:12.426Z,98725.92
2017-08-29T23:20:42.677Z,98714.50
2017-08-29T23:23:13.135Z,98730.53
2017-08-29T23:25:47.024Z,98724.12
2017-08-29T23:28:16.939Z,98724.69
2017-08-29T23:30:48.836Z,98710.39
2017-08-29T23:33:18.823Z,98710.39
2017-08-29T23:35:51.588Z,98706.94
2017-08-29T23:38:21.747Z,98700.02
2017-08-29T23:53:53.447Z,98626.86
2017-08-29T23:56:23.656Z,98688.20
2017-08-29T23:58:54.075Z,98682.50
